Time;durP1;ratioP1;P1;durP2;ratioP2;P2;SDS_P1;SDS_P2;PMS_P1;PMS_P2;Temp;Humidity;BMP_temperature;BMP_pressure;BME280_temperature;BME280_humidity;BME280_pressure;Samples;Min_cycle;Max_cycle;Signal;HPM_P1;HPM_P2
2022/09/08 00:00:17;;;;;;;4.53;2.00;;;19.80;99.90;;;;;;5058085;28;20025;-68
2022/09/08 00:02:42;;;;;;;6.22;2.08;;;19.80;99.90;;;;;;5058095;28;20073;-68
2022/09/08 00:05:13;;;;;;;5.15;2.05;;;20.00;99.90;;;;;;5075988;28;20025;-68
2022/09/08 00:07:39;;;;;;;4.93;1.90;;;20.00;99.90;;;;;;5076295;28;20033;-68
2022/09/08 00:10:05;;;;;;;3.05;1.75;;;20.10;99.90;;;;;;5075838;28;20131;-68
2022/09/08 00:12:30;;;;;;;3.05;1.67;;;20.10;99.90;;;;;;5076065;28;20389;-68
2022/09/08 00:14:58;;;;;;;3.90;1.42;;;20.00;99.90;;;;;;5075694;28;20033;-68
2022/09/08 00:17:24;;;;;;;2.78;1.60;;;19.70;99.90;;;;;;5075925;28;20024;-68
2022/09/08 00:19:49;;;;;;;3.58;1.92;;;19.50;99.90;;;;;;5075785;28;20104;-68
2022/09/08 00:22:15;;;;;;;5.22;1.98;;;19.50;99.90;;;;;;5057798;28;20067;-68
2022/09/08 00:24:40;;;;;;;4.93;1.98;;;19.60;99.90;;;;;;5075615;28;20359;-68
2022/09/08 00:27:06;;;;;;;3.75;1.80;;;19.50;99.90;;;;;;5075761;28;20024;-68
2022/09/08 00:29:31;;;;;;;3.72;1.77;;;19.60;99.90;;;;;;5075594;28;20381;-68
2022/09/08 00:31:57;;;;;;;2.58;1.98;;;19.70;99.90;;;;;;5075821;28;20113;-68
2022/09/08 00:34:23;;;;;;;2.63;1.90;;;19.80;99.90;;;;;;5075524;28;20052;-68
2022/09/08 00:36:48;;;;;;;5.35;1.92;;;20.00;99.90;;;;;;5057500;28;20032;-67
2022/09/08 00:39:15;;;;;;;3.88;1.83;;;20.00;99.90;;;;;;5075054;28;20041;-68
2022/09/08 00:41:40;;;;;;;4.30;1.88;;;20.10;99.90;;;;;;5075183;28;20024;-68
2022/09/08 00:44:48;;;;;;;3.50;1.80;;;20.10;99.90;;;;;;5075643;28;20032;-68
2022/09/08 00:47:42;;;;;;;5.78;1.70;;;20.30;99.90;;;;;;5075333;28;20020;-68
2022/09/08 00:50:24;;;;;;;5.13;1.70;;;20.30;99.90;;;;;;5057552;28;20131;-68
2022/09/08 00:52:53;;;;;;;2.72;2.00;;;20.10;99.90;;;;;;5075521;28;20017;-68
2022/09/08 00:55:20;;;;;;;2.60;1.55;;;20.00;99.90;;;;;;5074995;28;20020;-68
2022/09/08 00:57:46;;;;;;;4.72;1.80;;;19.90;99.90;;;;;;5075142;28;20017;-68
2022/09/08 01:00:16;;;;;;;2.63;1.90;;;19.70;99.90;;;;;;5074925;28;20028;-68
2022/09/08 01:02:44;;;;;;;5.18;2.15;;;19.60;99.90;;;;;;5056979;28;20619;-68
2022/09/08 01:05:13;;;;;;;3.78;1.90;;;19.70;99.90;;;;;;5074804;28;20037;-68
2022/09/08 01:14:04;;;;;;;4.75;2.40;;;19.40;99.90;;;;;;5074872;28;20476;-68
2022/09/08 01:16:36;;;;;;;3.95;2.50;;;19.30;99.90;;;;;;5056417;28;20035;-68
2022/09/08 01:19:01;;;;;;;6.35;2.63;;;19.40;99.90;;;;;;5074624;28;20539;-68
2022/09/08 01:21:41;;;;;;;6.80;2.53;;;19.40;99.90;;;;;;5074443;28;20059;-68
2022/09/08 01:24:58;;;;;;;4.70;2.58;;;19.50;99.90;;;;;;5056393;28;20029;-68
2022/09/08 01:27:26;;;;;;;3.95;2.17;;;19.50;99.90;;;;;;5019096;28;20111;-68
2022/09/08 01:29:59;;;;;;;6.28;2.88;;;19.60;99.90;;;;;;5074275;28;20518;-68
2022/09/08 01:32:31;;;;;;;7.22;2.38;;;19.70;99.90;;;;;;5074305;28;20024;-68
2022/09/08 01:34:56;;;;;;;5.78;3.10;;;19.70;99.90;;;;;;5074061;28;20060;-68
2022/09/08 01:37:22;;;;;;;5.60;2.47;;;19.80;99.90;;;;;;5073485;28;20082;-68
2022/09/08 01:39:48;;;;;;;8.30;3.03;;;19.60;99.90;;;;;;5073913;28;20036;-68
2022/09/08 01:42:13;;;;;;;5.25;2.45;;;19.60;99.90;;;;;;5056152;28;20121;-68
2022/09/08 01:44:39;;;;;;;7.05;2.83;;;19.70;99.90;;;;;;5074157;28;20099;-68
2022/09/08 01:47:04;;;;;;;5.95;2.58;;;19.70;99.90;;;;;;5073933;28;20036;-68
2022/09/08 01:49:30;;;;;;;6.85;2.75;;;19.70;99.90;;;;;;5074360;28;20354;-67
2022/09/08 01:51:56;;;;;;;3.35;2.20;;;19.80;99.90;;;;;;5074285;28;20024;-68
2022/09/08 01:54:21;;;;;;;8.77;2.88;;;19.90;99.90;;;;;;5073597;28;20021;-68
2022/09/08 01:56:47;;;;;;;3.83;2.30;;;19.80;99.90;;;;;;5074177;28;20029;-68
2022/09/08 01:59:13;;;;;;;3.78;2.38;;;19.80;99.90;;;;;;5074667;28;20016;-68
2022/09/08 02:01:38;;;;;;;4.35;2.97;;;19.80;99.90;;;;;;5056711;28;20033;-68
2022/09/08 02:04:04;;;;;;;4.43;2.15;;;19.90;99.90;;;;;;5073847;28;20043;-68
2022/09/08 02:06:30;;;;;;;5.25;2.55;;;20.00;99.90;;;;;;5055664;28;20074;-68
2022/09/08 02:08:56;;;;;;;5.00;2.40;;;20.00;99.90;;;;;;5073524;28;20108;-68
2022/09/08 02:11:22;;;;;;;4.78;2.60;;;19.90;99.90;;;;;;5073720;28;20024;-68
2022/09/08 02:13:48;;;;;;;5.05;2.55;;;19.50;99.90;;;;;;5073561;28;20028;-68
2022/09/08 02:16:14;;;;;;;5.57;2.70;;;19.40;99.90;;;;;;5073575;28;20103;-68
2022/09/08 02:18:40;;;;;;;6.70;3.08;;;19.40;99.90;;;;;;5073355;28;20453;-68
2022/09/08 02:21:07;;;;;;;7.32;2.97;;;19.40;99.90;;;;;;5073475;28;20032;-68
2022/09/08 02:23:35;;;;;;;6.78;3.13;;;19.50;99.90;;;;;;5073416;28;20055;-68
2022/09/08 02:26:00;;;;;;;4.80;2.30;;;19.40;99.90;;;;;;5073392;28;20029;-68
2022/09/08 02:28:26;;;;;;;4.97;2.80;;;19.20;99.90;;;;;;5073695;28;20023;-68
2022/09/08 02:30:57;;;;;;;5.25;2.90;;;19.20;99.90;;;;;;5074153;28;20036;-68
2022/09/08 02:33:23;;;;;;;4.30;2.90;;;19.30;99.90;;;;;;5074084;28;20024;-68
2022/09/08 02:35:48;;;;;;;5.05;2.53;;;19.30;99.90;;;;;;5073530;28;20078;-68
2022/09/08 02:38:14;;;;;;;5.65;2.88;;;19.20;99.90;;;;;;5074286;28;20493;-68
2022/09/08 02:40:39;;;;;;;7.22;3.15;;;18.80;99.90;;;;;;5073587;28;20040;-68
2022/09/08 02:43:05;;;;;;;5.43;2.92;;;18.60;99.90;;;;;;5074006;28;20028;-68
2022/09/08 02:45:30;;;;;;;8.25;2.83;;;18.60;99.90;;;;;;5073314;28;20024;-68
2022/09/08 02:47:56;;;;;;;9.60;3.88;;;18.70;99.90;;;;;;5073805;28;20032;-68
2022/09/08 02:50:21;;;;;;;9.00;3.95;;;18.70;99.90;;;;;;5054087;28;20033;-69
2022/09/08 02:52:47;;;;;;;7.38;3.92;;;18.50;99.90;;;;;;5073064;28;20032;-69
2022/09/08 02:55:13;;;;;;;6.68;3.30;;;18.30;99.90;;;;;;5073777;28;20013;-69
2022/09/08 02:57:38;;;;;;;4.75;3.83;;;18.20;99.90;;;;;;5055146;28;20052;-69
2022/09/08 03:00:04;;;;;;;7.53;4.15;;;18.20;99.90;;;;;;5073258;28;20024;-69
2022/09/08 03:02:30;;;;;;;5.22;3.67;;;18.30;99.90;;;;;;5073358;28;20107;-69
2022/09/08 03:04:57;;;;;;;7.30;4.40;;;18.40;99.90;;;;;;5073138;28;20082;-68
2022/09/08 03:07:22;;;;;;;7.88;4.20;;;18.50;99.90;;;;;;5054957;28;20078;-68
2022/09/08 03:09:49;;;;;;;6.70;3.75;;;18.50;99.90;;;;;;5072849;28;20032;-68
2022/09/08 03:12:14;;;;;;;4.80;4.20;;;18.40;99.90;;;;;;5072837;28;20095;-68
2022/09/08 03:14:40;;;;;;;9.48;4.22;;;18.60;99.90;;;;;;5072747;28;20021;-68
2022/09/08 03:17:06;;;;;;;5.85;3.70;;;18.50;99.90;;;;;;5072840;28;20108;-68
2022/09/08 03:19:31;;;;;;;7.90;4.55;;;18.40;99.90;;;;;;5072636;28;20504;-68
2022/09/08 03:21:57;;;;;;;6.63;4.55;;;18.30;99.90;;;;;;5054906;28;20036;-68
2022/09/08 03:24:22;;;;;;;5.65;4.50;;;18.20;99.90;;;;;;5054843;28;20032;-68
2022/09/08 03:26:48;;;;;;;6.13;4.13;;;18.20;99.90;;;;;;5054844;28;20032;-68
2022/09/08 03:29:13;;;;;;;9.32;4.88;;;18.20;99.90;;;;;;5072797;28;20024;-68
2022/09/08 03:31:39;;;;;;;7.63;4.80;;;18.20;99.90;;;;;;5072773;28;20028;-68
2022/09/08 03:34:04;;;;;;;5.82;5.22;;;18.10;99.90;;;;;;5054753;28;20385;-68
2022/09/08 03:36:30;;;;;;;7.78;5.05;;;18.10;99.90;;;;;;5073012;28;20035;-68
2022/09/08 03:38:55;;;;;;;8.25;6.07;;;18.00;99.90;;;;;;5072341;28;20029;-68
2022/09/08 03:41:21;;;;;;;15.68;6.13;;;18.00;99.90;;;;;;5072766;28;20568;-68
2022/09/08 03:43:49;;;;;;;9.20;6.10;;;18.00;99.90;;;;;;5072768;28;20103;-69
2022/09/08 03:46:15;;;;;;;12.40;6.43;;;18.00;99.90;;;;;;5072617;28;20028;-68
2022/09/08 03:48:41;;;;;;;7.00;5.38;;;17.90;99.90;;;;;;5072928;28;20035;-68
2022/09/08 03:51:16;;;;;;;9.43;4.97;;;17.80;99.90;;;;;;5054595;28;20032;-68
2022/09/08 03:53:43;;;;;;;10.70;4.70;;;17.80;99.90;;;;;;5054352;28;20033;-68
2022/09/08 03:56:10;;;;;;;6.00;4.47;;;17.80;99.90;;;;;;5054377;28;20032;-68
2022/09/08 03:58:37;;;;;;;5.05;3.42;;;17.80;99.90;;;;;;5072226;28;20029;-68
2022/09/08 04:01:10;;;;;;;5.03;3.60;;;17.70;99.90;;;;;;5073151;28;20051;-68
2022/09/08 04:03:36;;;;;;;5.07;3.90;;;17.70;99.90;;;;;;5075897;28;20024;-68
2022/09/08 04:06:02;;;;;;;6.00;4.00;;;17.60;99.90;;;;;;5075782;28;20366;-68
2022/09/08 04:08:28;;;;;;;20.45;3.63;;;17.60;99.90;;;;;;5075934;28;20025;-67
2022/09/08 04:10:53;;;;;;;5.82;3.15;;;17.50;99.90;;;;;;5057617;28;20032;-67
2022/09/08 04:13:19;;;;;;;5.50;2.42;;;17.50;99.90;;;;;;5075987;28;20021;-69
2022/09/08 04:15:45;;;;;;;3.28;2.08;;;17.50;99.90;;;;;;5075918;28;20052;-69
2022/09/08 04:18:10;;;;;;;6.43;2.30;;;17.40;99.90;;;;;;5075824;28;20039;-69
2022/09/08 04:20:38;;;;;;;3.38;1.75;;;17.40;99.90;;;;;;5057690;28;20041;-68
2022/09/08 04:23:05;;;;;;;3.78;2.00;;;17.30;99.90;;;;;;5075708;28;20051;-69
2022/09/08 04:25:30;;;;;;;2.55;1.85;;;17.20;99.90;;;;;;5075731;28;20524;-70
2022/09/08 04:27:56;;;;;;;3.80;1.88;;;17.20;99.90;;;;;;5075707;28;20060;-72
2022/09/08 04:30:22;;;;;;;7.57;2.72;;;17.20;99.90;;;;;;5075621;28;20081;-73
2022/09/08 04:32:47;;;;;;;2.90;1.88;;;17.20;99.90;;;;;;5075791;28;20029;-75
2022/09/08 04:35:13;;;;;;;3.73;1.93;;;17.20;99.90;;;;;;5075825;28;20029;-77
2022/09/08 04:37:38;;;;;;;3.03;1.57;;;17.20;99.90;;;;;;5077851;28;20270;-77
2022/09/08 04:40:06;;;;;;;2.78;1.83;;;17.10;99.90;;;;;;5075352;28;20369;-77
2022/09/08 04:42:33;;;;;;;2.15;1.40;;;17.00;99.90;;;;;;5076138;28;20036;-77
2022/09/08 04:44:59;;;;;;;2.70;1.60;;;17.00;99.90;;;;;;5076201;28;20091;-78
2022/09/08 04:47:25;;;;;;;3.50;1.65;;;17.00;99.90;;;;;;5057582;28;20029;-78
2022/09/08 04:49:52;;;;;;;5.18;2.03;;;16.90;99.90;;;;;;5075728;28;20029;-76
2022/09/08 04:52:18;;;;;;;4.32;1.95;;;17.00;99.90;;;;;;5075316;28;20024;-75
2022/09/08 04:54:43;;;;;;;4.50;1.80;;;17.00;99.90;;;;;;5075280;28;20021;-74
2022/09/08 04:57:09;;;;;;;4.32;1.60;;;17.00;99.90;;;;;;5075459;28;20028;-74
2022/09/08 04:59:35;;;;;;;3.58;1.40;;;16.90;99.90;;;;;;5075120;28;20020;-74
2022/09/08 05:02:00;;;;;;;1.97;1.17;;;16.80;99.90;;;;;;5075190;28;20443;-74
2022/09/08 05:04:26;;;;;;;4.90;1.70;;;16.70;99.90;;;;;;5075660;28;20032;-74
2022/09/08 05:06:51;;;;;;;3.27;1.10;;;16.60;99.90;;;;;;5075159;28;20278;-74
2022/09/08 05:09:17;;;;;;;4.23;1.40;;;16.50;99.90;;;;;;5074910;28;20422;-73
2022/09/08 05:11:42;;;;;;;3.50;1.57;;;16.40;99.90;;;;;;5074802;28;20259;-69
2022/09/08 05:14:09;;;;;;;2.38;1.63;;;16.40;99.90;;;;;;5074063;28;20021;-69
2022/09/08 05:16:35;;;;;;;2.45;1.00;;;16.30;99.90;;;;;;5075106;28;20066;-69
2022/09/08 05:19:03;;;;;;;2.93;1.27;;;16.40;99.90;;;;;;5074702;28;20515;-71
2022/09/08 05:21:30;;;;;;;4.43;1.30;;;16.30;99.90;;;;;;5074778;28;20258;-72
2022/09/08 05:23:56;;;;;;;5.18;1.48;;;16.30;99.90;;;;;;5074845;28;20021;-73
2022/09/08 05:26:23;;;;;;;2.58;1.00;;;16.40;99.90;;;;;;5075052;28;20487;-76
2022/09/08 05:28:50;;;;;;;2.65;1.10;;;16.40;99.90;;;;;;5074691;28;20455;-77
2022/09/08 05:31:21;;;;;;;1.77;1.00;;;16.30;99.90;;;;;;5076049;28;20024;-79
2022/09/08 05:33:47;;;;;;;1.67;1.00;;;16.30;99.90;;;;;;5076831;28;20115;-80
2022/09/08 05:36:16;;;;;;;4.10;1.10;;;16.30;99.90;;;;;;5076291;28;20103;-81
2022/09/08 05:38:41;;;;;;;2.38;1.20;;;16.30;99.90;;;;;;5076290;28;20033;-81
2022/09/08 05:41:09;;;;;;;2.38;1.52;;;16.40;99.90;;;;;;5076217;28;20409;-81
2022/09/08 05:43:34;;;;;;;4.00;1.50;;;16.50;99.90;;;;;;5075913;28;20024;-80
2022/09/08 05:46:00;;;;;;;2.30;1.27;;;16.60;99.90;;;;;;5075770;28;20480;-78
2022/09/08 05:48:26;;;;;;;3.05;1.20;;;16.60;99.90;;;;;;5079709;28;20305;-83
2022/09/08 05:50:51;;;;;;;2.55;1.05;;;16.60;99.90;;;;;;5078816;28;20047;-80
2022/09/08 05:53:17;;;;;;;4.13;2.90;;;16.60;99.90;;;;;;5080408;28;20031;-81
2022/09/08 05:55:53;;;;;;;5.73;2.30;;;16.70;99.90;;;;;;5080913;28;20032;-77
2022/09/08 05:58:19;;;;;;;2.27;1.03;;;16.70;99.90;;;;;;5078030;28;20255;-80
2022/09/08 06:00:44;;;;;;;2.58;1.08;;;16.80;99.90;;;;;;5062096;28;20153;-80
2022/09/08 06:03:11;;;;;;;2.97;1.10;;;16.70;99.90;;;;;;5076634;28;20095;-77
2022/09/08 06:05:36;;;;;;;2.63;1.05;;;16.80;99.90;;;;;;5079797;28;20266;-82
2022/09/08 06:08:02;;;;;;;2.43;1.10;;;16.70;99.90;;;;;;5076330;28;20385;-74
2022/09/08 06:10:28;;;;;;;4.32;1.30;;;16.70;99.90;;;;;;5073815;28;20024;-74
2022/09/08 06:12:54;;;;;;;1.97;1.33;;;16.80;99.90;;;;;;5073450;28;20538;-74
2022/09/08 06:15:19;;;;;;;;;;;16.80;99.90;;;;;;5073909;28;20650;-74
2022/09/08 06:17:46;;;;;;;1.58;0.93;;;16.70;99.90;;;;;;5073632;28;19911;-74
2022/09/08 06:20:11;;;;;;;3.65;1.10;;;16.80;99.90;;;;;;5073263;28;20028;-74
2022/09/08 06:22:37;;;;;;;3.35;1.20;;;16.90;99.90;;;;;;5073323;28;20029;-74
2022/09/08 06:25:02;;;;;;;1.57;1.10;;;17.00;99.90;;;;;;5073196;28;20027;-74
2022/09/08 06:27:47;;;;;;;4.72;1.40;;;17.00;99.90;;;;;;5073516;28;20282;-74
2022/09/08 06:30:18;;;;;;;4.22;1.42;;;17.00;99.90;;;;;;5073172;28;20026;-74
2022/09/08 06:32:57;;;;;;;5.63;1.20;;;16.90;99.90;;;;;;5073331;28;20095;-74
2022/09/08 06:35:40;;;;;;;3.45;1.90;;;17.10;99.90;;;;;;5073718;28;20458;-74
2022/09/08 06:38:15;;;;;;;3.58;1.20;;;17.10;99.90;;;;;;5073349;28;20070;-74
2022/09/08 06:40:45;;;;;;;2.78;1.00;;;17.10;99.90;;;;;;5072919;28;20043;-73
2022/09/08 06:43:18;;;;;;;7.80;1.33;;;17.10;99.90;;;;;;5073101;28;20051;-73
2022/09/08 06:45:47;;;;;;;4.15;1.45;;;17.10;99.90;;;;;;5073305;28;20055;-73
2022/09/08 06:48:22;;;;;;;2.47;0.90;;;17.10;99.90;;;;;;5073303;28;20063;-73
2022/09/08 06:51:24;;;;;;;4.43;1.30;;;17.10;99.90;;;;;;5073320;28;20032;-73
2022/09/08 06:54:10;;;;;;;2.70;1.60;;;17.20;99.90;;;;;;5072986;28;20070;-73
2022/09/08 06:56:38;;;;;;;4.28;1.40;;;17.20;99.90;;;;;;5073112;28;20028;-73
2022/09/08 06:59:23;;;;;;;2.50;0.82;;;17.40;99.90;;;;;;5073341;28;20032;-73
2022/09/08 07:02:17;;;;;;;1.83;0.85;;;17.40;99.90;;;;;;5072957;28;20097;-71
2022/09/08 07:04:46;;;;;;;1.63;0.90;;;17.50;99.90;;;;;;5073100;28;20039;-71
2022/09/08 07:07:27;;;;;;;3.20;0.95;;;17.40;99.90;;;;;;5072820;28;20099;-71
2022/09/08 07:10:01;;;;;;;3.55;0.82;;;17.60;99.90;;;;;;5072970;28;20377;-74
2022/09/08 07:12:48;;;;;;;3.17;1.05;;;17.40;99.90;;;;;;5073074;28;20024;-75
2022/09/08 07:15:24;;;;;;;4.00;1.25;;;17.50;99.90;;;;;;5073205;28;20157;-73
2022/09/08 07:18:24;;;;;;;4.00;0.90;;;17.70;99.90;;;;;;5073421;28;20393;-73
2022/09/08 07:21:03;;;;;;;3.13;1.00;;;17.70;99.90;;;;;;5034109;28;20036;-73
2022/09/08 07:23:32;;;;;;;4.07;1.15;;;17.70;99.90;;;;;;5072999;28;20028;-73
2022/09/08 07:26:26;;;;;;;4.32;2.08;;;17.70;99.90;;;;;;5073323;28;20020;-73
2022/09/08 07:28:55;;;;;;;2.60;1.30;;;17.80;99.90;;;;;;5072910;28;20493;-73
2022/09/08 07:31:24;;;;;;;3.17;1.35;;;17.70;99.90;;;;;;5054318;28;20060;-73
2022/09/08 07:34:06;;;;;;;2.22;1.00;;;17.80;99.90;;;;;;5072371;28;20029;-73
2022/09/08 07:36:53;;;;;;;1.98;0.98;;;17.90;99.90;;;;;;5074431;28;20028;-73
2022/09/08 07:39:21;;;;;;;3.80;1.17;;;17.70;99.90;;;;;;5076331;28;20048;-73
2022/09/08 07:41:52;;;;;;;3.97;1.65;;;17.70;99.90;;;;;;5076166;28;20029;-73
2022/09/08 07:44:18;;;;;;;3.92;1.10;;;17.70;99.90;;;;;;5076287;28;20017;-74
2022/09/08 07:46:52;;;;;;;1.20;0.80;;;17.80;99.90;;;;;;5076516;28;20017;-74
2022/09/08 07:49:52;;;;;;;1.90;1.05;;;17.80;99.90;;;;;;5076244;28;20029;-74
2022/09/08 07:53:03;;;;;;;2.58;1.10;;;17.90;99.90;;;;;;5075878;28;20031;-74
2022/09/08 07:55:37;;;;;;;2.72;1.10;;;17.80;99.90;;;;;;4975353;28;20456;-74
2022/09/08 07:58:27;;;;;;;2.13;1.00;;;17.90;99.90;;;;;;4975222;28;20046;-74
2022/09/08 08:01:05;;;;;;;5.13;0.90;;;17.80;99.90;;;;;;4975198;28;20443;-74
2022/09/08 08:03:36;;;;;;;4.03;1.25;;;17.80;99.90;;;;;;4975569;28;20030;-74
2022/09/08 08:06:07;;;;;;;3.03;1.50;;;17.70;99.90;;;;;;4975359;28;20027;-73
2022/09/08 08:08:53;;;;;;;3.17;1.10;;;17.80;99.90;;;;;;4975385;28;20027;-73
2022/09/08 08:12:00;;;;;;;6.47;1.00;;;17.80;99.90;;;;;;4960402;28;20170;-74
2022/09/08 08:14:30;;;;;;;2.80;1.00;;;18.00;99.90;;;;;;4972700;28;20196;-74
2022/09/08 08:17:04;;;;;;;2.60;1.10;;;18.00;99.90;;;;;;4975801;28;20050;-74
2022/09/08 08:19:51;;;;;;;4.03;1.35;;;17.90;99.90;;;;;;4974953;28;20047;-74
2022/09/08 08:22:41;;;;;;;2.85;1.00;;;18.10;99.90;;;;;;4974942;28;20040;-74
2022/09/08 08:25:15;;;;;;;3.28;1.45;;;18.10;99.90;;;;;;4984236;28;20031;-74
2022/09/08 08:27:53;;;;;;;2.70;1.00;;;18.10;99.90;;;;;;5075737;28;20107;-74
2022/09/08 08:30:23;;;;;;;3.30;1.33;;;18.30;99.90;;;;;;5075883;28;20090;-74
2022/09/08 08:32:58;;;;;;;3.78;1.08;;;18.40;99.90;;;;;;5075781;28;20426;-74
2022/09/08 08:35:49;;;;;;;2.65;0.73;;;18.50;99.90;;;;;;5075440;28;20016;-74
2022/09/08 08:38:19;;;;;;;3.22;1.80;;;18.60;99.90;;;;;;5076019;28;20046;-74
2022/09/08 08:41:06;;;;;;;3.70;1.15;;;18.70;99.90;;;;;;5075296;28;20507;-74
2022/09/08 08:43:45;;;;;;;2.78;1.08;;;18.80;99.90;;;;;;5075373;28;20021;-74
2022/09/08 08:46:21;;;;;;;4.65;0.90;;;18.80;99.90;;;;;;5075287;28;20115;-74
2022/09/08 08:49:15;;;;;;;1.85;0.70;;;18.80;99.90;;;;;;5075145;28;20041;-74
2022/09/08 08:52:25;;;;;;;3.42;0.70;;;18.90;99.90;;;;;;5075365;28;20353;-73
2022/09/08 08:55:12;;;;;;;3.00;1.00;;;19.10;99.90;;;;;;5036576;28;20456;-73
2022/09/08 08:57:59;;;;;;;2.53;0.80;;;19.00;99.90;;;;;;5075632;28;20032;-73
2022/09/08 09:00:46;;;;;;;4.63;1.48;;;19.00;99.90;;;;;;5075352;28;20381;-73
2022/09/08 09:03:44;;;;;;;3.40;0.60;;;19.10;99.90;;;;;;5057143;28;20111;-73
2022/09/08 09:06:36;;;;;;;2.97;1.13;;;19.60;99.90;;;;;;5075183;28;20500;-72
2022/09/08 09:09:20;;;;;;;1.40;0.77;;;20.10;99.90;;;;;;5070418;28;20158;-73
2022/09/08 09:12:11;;;;;;;2.05;0.60;;;20.40;99.90;;;;;;5074836;28;20024;-72
2022/09/08 09:14:39;;;;;;;3.45;1.08;;;23.40;99.90;;;;;;5075055;28;20031;-73
2022/09/08 09:17:36;;;;;;;3.72;1.00;;;24.90;99.90;;;;;;5074879;28;20025;-72
2022/09/08 09:20:21;;;;;;;3.17;0.70;;;25.20;99.90;;;;;;5075387;28;20032;-72
2022/09/08 09:22:56;;;;;;;3.50;0.82;;;24.70;99.90;;;;;;5024368;28;20489;-71
2022/09/08 09:25:34;;;;;;;5.35;0.85;;;25.00;99.90;;;;;;5074546;28;20033;-72
2022/09/08 09:28:21;;;;;;;2.65;0.57;;;26.40;99.20;;;;;;5074444;28;20032;-72
2022/09/08 09:31:20;;;;;;;2.92;0.98;;;27.00;98.30;;;;;;5074388;28;20032;-71
2022/09/08 09:34:00;;;;;;;0.80;0.47;;;26.70;96.80;;;;;;5074946;28;20021;-72
2022/09/08 09:36:44;;;;;;;3.20;1.13;;;25.00;98.70;;;;;;5074452;28;20063;-71
2022/09/08 09:39:20;;;;;;;3.00;0.70;;;23.70;99.90;;;;;;5074238;28;20539;-71
2022/09/08 09:41:46;;;;;;;1.98;0.80;;;22.80;99.90;;;;;;5056398;28;20024;-72
2022/09/08 09:44:34;;;;;;;2.70;0.70;;;22.50;99.90;;;;;;5074907;28;20017;-75
2022/09/08 09:47:02;;;;;;;4.05;0.77;;;22.10;99.90;;;;;;5074864;28;20067;-75
2022/09/08 09:49:30;;;;;;;5.95;3.38;;;21.90;99.90;;;;;;5073998;28;20447;-76
2022/09/08 09:52:21;;;;;;;3.28;0.85;;;21.90;99.90;;;;;;5056286;28;20021;-75
2022/09/08 09:54:57;;;;;;;3.65;0.60;;;21.80;99.90;;;;;;5057847;28;20017;-75
2022/09/08 09:57:50;;;;;;;1.90;0.65;;;21.70;99.90;;;;;;5076561;28;20017;-75
2022/09/08 10:00:28;;;;;;;1.00;0.50;;;21.40;99.90;;;;;;5075817;28;20035;-75
2022/09/08 10:03:15;;;;;;;2.22;0.80;;;21.30;99.90;;;;;;5057062;28;20035;-74
2022/09/08 10:06:05;;;;;;;2.42;1.65;;;22.00;99.90;;;;;;5077030;28;20047;-74
2022/09/08 10:08:48;;;;;;;1.75;0.70;;;22.70;99.90;;;;;;5074778;28;20036;-73
2022/09/08 10:11:56;;;;;;;2.20;0.80;;;22.50;99.90;;;;;;5074339;28;20024;-72
2022/09/08 10:14:48;;;;;;;3.05;0.82;;;22.40;99.90;;;;;;5073973;28;20024;-72
2022/09/08 10:17:47;;;;;;;3.08;0.60;;;22.10;99.90;;;;;;5073896;28;20067;-72
2022/09/08 10:20:54;;;;;;;2.65;0.80;;;22.00;99.90;;;;;;5073395;28;20429;-71
2022/09/08 10:23:22;;;;;;;1.98;0.60;;;21.70;99.90;;;;;;5073385;28;20021;-70
2022/09/08 10:26:09;;;;;;;3.78;0.88;;;21.40;99.90;;;;;;5073210;28;20020;-71
2022/09/08 10:28:44;;;;;;;2.10;0.70;;;21.60;99.90;;;;;;5073751;28;20025;-70
2022/09/08 10:31:46;;;;;;;2.53;0.70;;;21.40;99.90;;;;;;5073369;28;20051;-71
2022/09/08 10:34:49;;;;;;;1.95;0.75;;;21.40;99.90;;;;;;5073329;28;20029;-71
2022/09/08 10:37:17;;;;;;;6.20;1.00;;;21.50;99.90;;;;;;5073425;28;20021;-71
2022/09/08 10:40:08;;;;;;;3.35;0.77;;;21.60;99.90;;;;;;5073028;28;20032;-71
2022/09/08 10:42:51;;;;;;;3.78;1.20;;;21.50;99.90;;;;;;5073359;28;20116;-71
2022/09/08 10:45:17;;;;;;;1.92;0.88;;;21.60;99.90;;;;;;5073807;28;20059;-68
2022/09/08 10:48:27;;;;;;;4.03;0.85;;;21.60;99.90;;;;;;5073089;28;20059;-68
2022/09/08 10:50:59;;;;;;;3.75;1.20;;;21.90;99.90;;;;;;5073012;28;20028;-67
2022/09/08 10:53:36;;;;;;;8.10;4.38;;;21.90;99.90;;;;;;5073388;28;20441;-68
2022/09/08 10:56:05;;;;;;;1.55;0.75;;;22.10;99.90;;;;;;5073226;28;20081;-68
2022/09/08 10:58:52;;;;;;;5.15;1.10;;;22.20;99.90;;;;;;5072853;28;20032;-68
2022/09/08 11:01:44;;;;;;;2.90;1.05;;;22.30;99.90;;;;;;5072919;28;20036;-67
2022/09/08 11:04:25;;;;;;;2.88;0.70;;;22.70;99.90;;;;;;5072871;28;20025;-67
2022/09/08 11:07:03;;;;;;;1.73;0.60;;;23.70;99.90;;;;;;5072799;28;20366;-67
2022/09/08 11:10:15;;;;;;;4.18;1.30;;;23.80;99.90;;;;;;5072916;28;20084;-67
2022/09/08 11:13:00;;;;;;;2.30;0.85;;;23.90;99.90;;;;;;5076738;28;20020;-66
2022/09/08 11:15:41;;;;;;;5.97;1.40;;;23.60;99.90;;;;;;5076054;28;20533;-67
2022/09/08 11:18:23;;;;;;;3.53;1.00;;;23.80;99.90;;;;;;5059411;28;20036;-67
2022/09/08 11:20:55;;;;;;;3.28;0.82;;;23.80;99.90;;;;;;5080205;28;20075;-67
2022/09/08 11:23:49;;;;;;;5.90;1.17;;;23.90;99.90;;;;;;5061712;28;20388;-66
2022/09/08 11:27:00;;;;;;;1.65;0.82;;;23.70;99.90;;;;;;5078389;28;20086;-64
2022/09/08 11:29:34;;;;;;;4.78;1.25;;;23.70;99.90;;;;;;5051755;28;20112;-65
2022/09/08 11:32:08;;;;;;;2.55;0.80;;;23.30;99.90;;;;;;5077284;28;20419;-65
2022/09/08 11:35:22;;;;;;;5.95;0.90;;;23.10;99.90;;;;;;5077256;28;20104;-65
2022/09/08 11:38:18;;;;;;;7.50;1.02;;;23.10;99.90;;;;;;5000895;28;20051;-66
2022/09/08 11:41:15;;;;;;;4.43;1.00;;;23.10;99.90;;;;;;5076527;28;20037;-66
2022/09/08 11:43:52;;;;;;;3.88;1.17;;;23.10;99.90;;;;;;5076878;28;20381;-67
2022/09/08 11:47:08;;;;;;;5.43;1.80;;;23.00;99.90;;;;;;5076974;28;20020;-67
2022/09/08 11:50:03;;;;;;;5.57;0.90;;;23.20;99.90;;;;;;4975416;28;20062;-69
2022/09/08 11:53:06;;;;;;;3.08;0.73;;;23.30;99.80;;;;;;5075693;28;20546;-69
2022/09/08 11:55:50;;;;;;;4.10;1.00;;;23.40;98.80;;;;;;5076467;28;20060;-67
2022/09/08 11:58:40;;;;;;;5.80;1.48;;;23.60;97.60;;;;;;5076538;28;20033;-67
2022/09/08 12:01:18;;;;;;;6.20;1.05;;;23.60;97.50;;;;;;5076128;28;20166;-67
2022/09/08 12:04:18;;;;;;;5.72;0.93;;;23.60;98.30;;;;;;5076301;28;20078;-66
2022/09/08 12:07:04;;;;;;;6.18;1.17;;;23.60;99.00;;;;;;5077114;28;20073;-66
2022/09/08 12:10:30;;;;;;;2.20;0.60;;;23.70;98.20;;;;;;5078058;28;20037;-66
2022/09/08 12:13:04;;;;;;;3.15;1.27;;;23.50;98.30;;;;;;4978167;28;20546;-69
2022/09/08 12:16:04;;;;;;;5.05;0.82;;;23.40;98.80;;;;;;4976837;28;20431;-65
2022/09/08 12:18:54;;;;;;;3.55;1.10;;;23.30;98.70;;;;;;4977685;28;20039;-63
2022/09/08 12:21:28;;;;;;;3.38;0.75;;;23.40;98.30;;;;;;4974815;28;20038;-67
2022/09/08 12:24:32;;;;;;;3.20;0.90;;;23.20;98.60;;;;;;4976230;28;20031;-66
2022/09/08 12:27:27;;;;;;;4.10;1.30;;;23.10;99.00;;;;;;4977049;28;20026;-66
2022/09/08 12:30:18;;;;;;;6.25;1.00;;;22.90;99.60;;;;;;4976336;28;20031;-66
2022/09/08 12:32:53;;;;;;;3.70;0.95;;;22.70;99.90;;;;;;4976533;28;20057;-68
2022/09/08 12:35:55;;;;;;;3.78;0.90;;;22.60;99.90;;;;;;4961940;28;20450;-67
2022/09/08 12:38:24;;;;;;;4.38;1.30;;;22.30;99.90;;;;;;4936760;29;20039;-67
2022/09/08 12:40:59;;;;;;;5.97;1.25;;;21.80;99.90;;;;;;4936791;29;20520;-65
2022/09/08 12:43:32;;;;;;;8.68;1.30;;;21.30;99.90;;;;;;4966243;28;20042;-69
2022/09/08 12:46:27;;;;;;;3.30;0.98;;;21.00;99.90;;;;;;5014341;28;20041;-65
2022/09/08 12:49:13;;;;;;;2.22;0.88;;;20.80;99.90;;;;;;5014271;28;20399;-66
2022/09/08 12:51:39;;;;;;;5.82;1.10;;;20.70;99.90;;;;;;5014778;28;20077;-65
2022/09/08 12:54:22;;;;;;;7.10;1.40;;;20.50;99.90;;;;;;5015632;28;20065;-65
2022/09/08 12:56:56;;;;;;;5.50;1.73;;;20.70;99.90;;;;;;5013948;28;20129;-65
2022/09/08 12:59:32;;;;;;;3.15;1.00;;;20.80;99.90;;;;;;5013480;28;20101;-65
2022/09/08 13:02:19;;;;;;;5.97;1.30;;;20.90;99.90;;;;;;5014060;28;20041;-65
2022/09/08 13:05:03;;;;;;;3.78;1.00;;;21.10;99.90;;;;;;5014135;28;20033;-65
2022/09/08 13:07:44;;;;;;;3.63;1.05;;;21.40;99.90;;;;;;5013408;28;20033;-66
2022/09/08 13:10:10;;;;;;;3.33;1.23;;;21.50;99.90;;;;;;5013393;28;20037;-66
2022/09/08 13:13:13;;;;;;;4.10;1.45;;;21.60;99.90;;;;;;5013896;28;20301;-66
2022/09/08 13:15:47;;;;;;;5.47;1.60;;;21.50;99.90;;;;;;5061391;28;20182;-67
2022/09/08 13:18:26;;;;;;;4.95;1.63;;;21.50;99.90;;;;;;5057301;28;20056;-67
2022/09/08 13:21:05;;;;;;;4.28;1.00;;;21.50;99.90;;;;;;5074883;28;20067;-67
2022/09/08 13:23:37;;;;;;;4.00;1.00;;;21.80;99.90;;;;;;5075785;28;20029;-66
2022/09/08 13:26:21;;;;;;;5.72;1.17;;;22.10;99.90;;;;;;5075340;28;20027;-67
2022/09/08 13:28:58;;;;;;;4.72;0.95;;;22.30;99.90;;;;;;5075123;28;20054;-67
2022/09/08 13:31:43;;;;;;;3.55;1.08;;;22.40;99.90;;;;;;5077540;28;20020;-67
2022/09/08 13:34:19;;;;;;;3.50;0.93;;;22.50;99.90;;;;;;5078528;28;20036;-67
2022/09/08 13:36:48;;;;;;;;;;;22.60;99.90;;;;;;5081400;28;20111;-67